Time;durP1;ratioP1;P1;durP2;ratioP2;P2;SDS_P1;SDS_P2;PMS_P1;PMS_P2;Temp;Humidity;BMP_temperature;BMP_pressure;BME280_temperature;BME280_humidity;BME280_pressure;Samples;Min_cycle;Max_cycle;Signal;HPM_P1;HPM_P2
2022/02/07 00:01:39;;;;;;;3.60;1.23;;;2.50;99.90;;;;;;5094110;28;20180;-56
2022/02/07 00:04:07;;;;;;;1.27;1.00;;;2.50;99.90;;;;;;5094585;28;20188;-56
2022/02/07 00:06:34;;;;;;;6.03;1.38;;;2.60;99.90;;;;;;5094192;28;20705;-55
2022/02/07 00:09:03;;;;;;;4.40;1.30;;;2.60;99.90;;;;;;5093461;28;20304;-55
2022/02/07 00:11:30;;;;;;;5.88;1.00;;;2.60;99.90;;;;;;5093737;28;20200;-55
2022/02/07 00:13:57;;;;;;;2.97;1.27;;;2.60;99.90;;;;;;5093674;28;20216;-55
2022/02/07 00:16:24;;;;;;;5.25;1.30;;;2.60;99.90;;;;;;5093369;28;20200;-55
2022/02/07 00:18:51;;;;;;;11.77;2.15;;;2.60;99.90;;;;;;5093209;28;20220;-56
2022/02/07 00:21:18;;;;;;;2.78;1.63;;;2.60;99.90;;;;;;5093323;28;20278;-55
2022/02/07 00:23:45;;;;;;;5.60;1.30;;;2.60;99.90;;;;;;5093618;28;20278;-55
2022/02/07 00:26:14;;;;;;;4.03;1.60;;;2.60;99.90;;;;;;5097847;28;20227;-55
2022/02/07 00:28:41;;;;;;;4.13;1.30;;;2.50;99.90;;;;;;5097406;28;20243;-55
2022/02/07 00:31:08;;;;;;;4.28;1.40;;;2.50;99.90;;;;;;5097443;28;20207;-56
2022/02/07 00:33:35;;;;;;;3.25;1.23;;;2.50;99.90;;;;;;5097073;28;20227;-55
2022/02/07 00:36:02;;;;;;;8.25;1.02;;;2.50;99.90;;;;;;5097319;28;20200;-56
2022/02/07 00:38:29;;;;;;;7.43;1.40;;;2.40;99.90;;;;;;5097262;28;20235;-56
2022/02/07 00:41:14;;;;;;;2.75;1.30;;;2.40;99.90;;;;;;5097079;28;20676;-55
2022/02/07 00:43:46;;;;;;;3.88;1.05;;;2.30;99.90;;;;;;5097276;28;20216;-55
2022/02/07 00:46:20;;;;;;;3.15;1.10;;;2.30;99.90;;;;;;5097569;28;20185;-55
2022/02/07 00:48:47;;;;;;;1.25;0.90;;;2.20;99.90;;;;;;5096983;28;20315;-55
2022/02/07 00:51:14;;;;;;;2.28;1.05;;;2.20;99.90;;;;;;5097200;28;20274;-55
2022/02/07 00:53:41;;;;;;;4.43;1.38;;;2.20;99.90;;;;;;5096917;28;20219;-56
2022/02/07 00:56:09;;;;;;;1.88;1.30;;;2.20;99.90;;;;;;5097016;28;20200;-56
2022/02/07 00:58:36;;;;;;;2.75;0.93;;;2.10;99.90;;;;;;5096840;28;20231;-56
2022/02/07 01:01:04;;;;;;;2.80;1.20;;;2.10;99.90;;;;;;5097061;28;20207;-55
2022/02/07 01:03:31;;;;;;;1.15;0.90;;;2.10;99.90;;;;;;5096874;28;20207;-55
2022/02/07 01:05:58;;;;;;;4.60;1.38;;;2.00;99.90;;;;;;5096959;28;20204;-55
2022/02/07 01:08:36;;;;;;;4.22;1.60;;;2.00;99.90;;;;;;5096535;28;20224;-56
2022/02/07 01:11:10;;;;;;;5.47;1.20;;;2.00;99.90;;;;;;5096755;28;20184;-55
2022/02/07 01:13:54;;;;;;;4.30;1.13;;;1.90;99.90;;;;;;5096515;28;20265;-56
2022/02/07 01:16:56;;;;;;;3.72;1.00;;;1.90;99.90;;;;;;5096285;28;20565;-56
2022/02/07 01:19:36;;;;;;;1.92;1.13;;;1.90;99.90;;;;;;5096024;28;20363;-56
2022/02/07 01:47:21;;;;;;;1.95;0.98;;;1.80;99.90;;;;;;5034086;28;20213;-55
2022/02/07 01:50:16;;;;;;;4.05;1.17;;;1.80;99.90;;;;;;5033585;28;20600;-55
2022/02/07 01:52:55;;;;;;;2.97;1.10;;;1.80;99.90;;;;;;5078950;28;20201;-56
2022/02/07 01:55:33;;;;;;;5.28;1.60;;;1.80;99.90;;;;;;5095737;28;20211;-56
2022/02/07 01:58:01;;;;;;;3.17;0.90;;;1.80;99.90;;;;;;5096234;28;20731;-56
2022/02/07 02:00:28;;;;;;;3.65;1.30;;;1.80;99.90;;;;;;5096651;28;20204;-56
2022/02/07 02:02:55;;;;;;;2.03;1.10;;;1.80;99.90;;;;;;5095579;28;20204;-55
2022/02/07 02:05:24;;;;;;;2.65;0.98;;;1.80;99.90;;;;;;5095797;28;20193;-55
2022/02/07 02:07:51;;;;;;;5.57;1.52;;;1.80;99.90;;;;;;5095302;28;20232;-55
2022/02/07 02:10:19;;;;;;;6.45;1.67;;;1.80;99.90;;;;;;5095753;28;20287;-56
2022/02/07 02:12:57;;;;;;;4.60;1.45;;;1.90;99.90;;;;;;5095667;28;20204;-55
2022/02/07 02:15:34;;;;;;;1.77;1.00;;;1.90;99.90;;;;;;5095456;28;20205;-56
2022/02/07 02:18:35;;;;;;;4.32;1.27;;;2.00;99.90;;;;;;5095730;28;20228;-55
2022/02/07 02:35:24;;;;;;;3.15;1.17;;;2.20;99.90;;;;;;5095555;28;20288;-56
2022/02/07 02:37:56;;;;;;;4.80;1.70;;;2.20;99.90;;;;;;5095594;28;20231;-56
2022/02/07 02:45:53;;;;;;;2.38;1.02;;;2.30;99.90;;;;;;5095844;28;20180;-56
2022/02/07 02:48:23;;;;;;;7.10;0.85;;;2.40;99.90;;;;;;5093821;28;20242;-56
2022/02/07 02:50:53;;;;;;;1.20;0.82;;;2.40;99.90;;;;;;5094514;28;20254;-56
2022/02/07 02:53:20;;;;;;;2.50;0.93;;;2.40;99.90;;;;;;5095920;28;20204;-56
2022/02/07 02:55:50;;;;;;;5.22;1.00;;;2.40;99.90;;;;;;5094510;28;20738;-55
2022/02/07 02:58:20;;;;;;;3.42;1.35;;;2.40;99.90;;;;;;5094552;28;20220;-56
2022/02/07 03:00:49;;;;;;;2.22;1.17;;;2.40;99.90;;;;;;5095002;28;20207;-56
2022/02/07 03:03:16;;;;;;;4.35;1.20;;;2.40;99.90;;;;;;5094269;28;20207;-56
2022/02/07 03:05:45;;;;;;;4.72;2.28;;;2.40;99.90;;;;;;5095131;28;20211;-56
2022/02/07 03:08:13;;;;;;;5.80;1.50;;;2.50;99.90;;;;;;5094927;28;20235;-56
2022/02/07 03:10:53;;;;;;;4.75;1.35;;;2.50;99.90;;;;;;5094392;28;20204;-56
2022/02/07 03:13:44;;;;;;;2.88;1.30;;;2.50;99.90;;;;;;5094349;28;20199;-55
2022/02/07 03:18:56;;;;;;;3.80;1.30;;;2.50;99.90;;;;;;5094141;28;20215;-54
2022/02/07 03:21:23;;;;;;;6.38;1.63;;;2.50;99.90;;;;;;5094159;28;20205;-55
2022/02/07 03:23:50;;;;;;;5.32;1.27;;;2.40;99.90;;;;;;5093972;28;20702;-55
2022/02/07 03:26:19;;;;;;;4.78;1.60;;;2.40;99.90;;;;;;5093888;28;20278;-55
2022/02/07 03:28:49;;;;;;;7.45;1.92;;;2.50;99.90;;;;;;5093963;28;20224;-55
2022/02/07 03:31:16;;;;;;;3.65;1.42;;;2.50;99.90;;;;;;5093572;28;20204;-55
2022/02/07 03:33:44;;;;;;;5.15;1.45;;;2.50;99.90;;;;;;5093973;28;20282;-55
2022/02/07 03:36:12;;;;;;;2.45;1.10;;;2.60;99.90;;;;;;5093648;28;20205;-56
2022/02/07 03:38:39;;;;;;;2.45;1.48;;;2.60;99.90;;;;;;5093713;28;20236;-56
2022/02/07 03:41:08;;;;;;;2.47;0.90;;;2.60;99.90;;;;;;5093811;28;20598;-55
2022/02/07 03:43:35;;;;;;;5.35;1.02;;;2.60;99.90;;;;;;5093690;28;20204;-56
2022/02/07 03:46:04;;;;;;;2.72;1.17;;;2.60;99.90;;;;;;5093641;28;20200;-55
2022/02/07 03:48:31;;;;;;;5.40;1.60;;;2.60;99.90;;;;;;5093530;28;20260;-55
2022/02/07 03:50:59;;;;;;;2.20;1.00;;;2.60;99.90;;;;;;5093127;28;20200;-55
2022/02/07 03:53:26;;;;;;;1.25;0.90;;;2.50;99.90;;;;;;5093294;28;20204;-56
2022/02/07 03:55:53;;;;;;;6.60;1.52;;;2.50;99.90;;;;;;5093127;28;20220;-55
2022/02/07 03:58:21;;;;;;;2.53;0.95;;;2.50;99.90;;;;;;5093487;28;20228;-56
2022/02/07 04:00:50;;;;;;;2.22;1.45;;;2.50;99.90;;;;;;5092876;28;20200;-56
2022/02/07 04:03:21;;;;;;;2.33;1.00;;;2.50;99.90;;;;;;5093541;28;20228;-56
2022/02/07 04:09:20;;;;;;;2.20;1.50;;;2.50;99.90;;;;;;5104657;27;1408400;-54
2022/02/07 04:11:52;;;;;;;2.47;1.20;;;2.50;99.90;;;;;;5152461;27;20424;-55
2022/02/07 04:14:22;;;;;;;3.80;1.15;;;2.50;99.90;;;;;;5152205;27;20626;-55
2022/02/07 04:16:49;;;;;;;5.07;1.17;;;2.60;99.90;;;;;;5152246;27;20191;-56
2022/02/07 04:19:19;;;;;;;3.42;1.60;;;2.60;99.90;;;;;;5151953;27;20744;-55
2022/02/07 04:24:20;;;;;;;3.75;1.48;;;2.70;99.90;;;;;;5111160;22;20256;-59
2022/02/07 04:26:47;;;;;;;2.55;1.40;;;2.70;99.90;;;;;;5091041;28;20205;-59
2022/02/07 04:29:14;;;;;;;6.65;1.20;;;2.70;99.90;;;;;;5091179;28;20234;-59
2022/02/07 04:31:41;;;;;;;7.25;1.90;;;2.80;99.90;;;;;;5090377;28;20204;-59
2022/02/07 04:34:09;;;;;;;3.92;1.30;;;2.80;99.90;;;;;;5090611;28;20220;-59
2022/02/07 04:36:36;;;;;;;4.05;1.20;;;2.80;99.90;;;;;;5090639;28;20213;-59
2022/02/07 04:39:04;;;;;;;6.05;1.67;;;2.80;99.90;;;;;;5090493;28;20193;-59
2022/02/07 04:41:32;;;;;;;7.00;1.85;;;2.80;99.90;;;;;;5090328;28;20699;-59
2022/02/07 04:44:03;;;;;;;4.40;1.30;;;2.80;99.90;;;;;;5090081;28;20220;-59
2022/02/07 04:46:46;;;;;;;2.22;1.20;;;2.80;99.90;;;;;;5090423;28;20590;-59
2022/02/07 04:52:08;;;;;;;13.07;1.98;;;3.00;99.90;;;;;;5079102;28;20196;-59
2022/02/07 04:54:52;;;;;;;7.80;1.77;;;3.00;99.90;;;;;;5090687;28;20192;-58
2022/02/07 04:57:45;;;;;;;3.17;1.42;;;3.10;99.90;;;;;;5089912;28;20184;-59
2022/02/07 05:00:29;;;;;;;8.27;2.00;;;3.10;99.90;;;;;;5089627;28;20639;-54
2022/02/07 05:03:03;;;;;;;8.43;1.70;;;3.20;99.90;;;;;;5089578;28;20270;-59
2022/02/07 05:13:47;;;;;;;4.18;1.40;;;3.40;99.90;;;;;;5089654;28;20293;-58
2022/02/07 05:16:20;;;;;;;3.65;1.55;;;3.40;99.90;;;;;;5089848;28;20193;-59
2022/02/07 05:18:50;;;;;;;5.63;2.35;;;3.50;99.90;;;;;;5087952;28;20185;-58
2022/02/07 05:21:17;;;;;;;12.07;2.80;;;3.50;99.90;;;;;;5079289;28;20212;-59
2022/02/07 05:23:44;;;;;;;11.20;2.63;;;3.50;99.90;;;;;;5076375;28;20229;-59
2022/02/07 05:26:12;;;;;;;7.75;2.55;;;3.50;99.90;;;;;;5077350;28;20209;-60
2022/02/07 05:28:39;;;;;;;4.50;1.42;;;3.60;99.90;;;;;;5076381;28;20224;-59
2022/02/07 05:31:08;;;;;;;5.40;1.40;;;3.60;99.90;;;;;;5076315;28;20259;-59
2022/02/07 05:33:36;;;;;;;4.53;1.23;;;3.60;99.90;;;;;;5076197;28;20320;-59
2022/02/07 05:36:04;;;;;;;7.28;1.92;;;3.60;99.90;;;;;;5076996;28;20636;-60
2022/02/07 05:38:33;;;;;;;3.83;2.30;;;3.60;99.90;;;;;;5076721;28;20554;-59
2022/02/07 05:41:04;;;;;;;6.07;1.70;;;3.60;99.90;;;;;;5077048;28;20250;-59
2022/02/07 05:43:31;;;;;;;7.10;1.58;;;3.60;99.90;;;;;;5076419;28;20217;-60
2022/02/07 05:45:58;;;;;;;9.73;2.28;;;3.60;99.90;;;;;;5077942;28;20200;-59
2022/02/07 05:48:26;;;;;;;9.85;4.13;;;3.50;99.90;;;;;;5078308;28;20577;-59
2022/02/07 05:50:53;;;;;;;9.18;2.53;;;3.50;99.90;;;;;;5076843;28;20197;-59
2022/02/07 05:53:20;;;;;;;5.93;2.25;;;3.50;99.90;;;;;;5076327;28;20615;-59
2022/02/07 05:55:48;;;;;;;7.25;1.73;;;3.50;99.90;;;;;;5075768;28;20227;-60
2022/02/07 05:58:15;;;;;;;7.78;2.03;;;3.50;99.90;;;;;;5075430;28;20687;-59
2022/02/07 06:00:42;;;;;;;4.22;1.67;;;3.50;99.90;;;;;;5075573;28;20201;-58
2022/02/07 06:03:09;;;;;;;15.52;2.10;;;3.50;99.90;;;;;;5075590;28;20347;-58
2022/02/07 06:05:38;;;;;;;2.88;1.48;;;3.40;99.90;;;;;;5075635;28;20291;-58
2022/02/07 06:08:05;;;;;;;4.93;1.60;;;3.40;99.90;;;;;;5074948;28;20311;-59
2022/02/07 06:10:33;;;;;;;6.65;2.25;;;3.40;99.90;;;;;;5075262;28;20290;-58
2022/02/07 06:13:00;;;;;;;9.15;2.20;;;3.40;99.90;;;;;;5075166;28;20594;-58
2022/02/07 06:15:27;;;;;;;4.55;2.25;;;3.40;99.90;;;;;;5074830;28;20266;-57
2022/02/07 06:17:57;;;;;;;8.35;2.30;;;3.40;99.90;;;;;;5075121;28;20196;-58
2022/02/07 06:20:25;;;;;;;4.95;1.70;;;3.30;99.90;;;;;;5075504;28;20181;-58
2022/02/07 06:22:54;;;;;;;5.13;2.55;;;3.40;99.90;;;;;;5074929;28;20290;-58
2022/02/07 06:25:21;;;;;;;8.15;1.95;;;3.40;99.90;;;;;;5075525;28;20288;-58
2022/02/07 06:27:50;;;;;;;4.40;2.40;;;3.40;99.90;;;;;;5076063;28;20245;-59
2022/02/07 06:30:17;;;;;;;4.50;1.75;;;3.50;99.90;;;;;;5076353;28;20205;-59
2022/02/07 06:32:45;;;;;;;9.18;2.38;;;3.50;99.90;;;;;;5083089;28;20221;-61
2022/02/07 06:35:13;;;;;;;5.75;2.05;;;3.50;99.90;;;;;;5086539;28;20208;-59
2022/02/07 06:37:41;;;;;;;11.35;2.30;;;3.60;99.90;;;;;;5086283;28;20228;-59
2022/02/07 06:40:11;;;;;;;9.13;2.88;;;3.60;99.90;;;;;;5084842;28;20208;-59
2022/02/07 06:42:38;;;;;;;9.73;2.35;;;3.60;99.90;;;;;;5077673;28;20221;-59
2022/02/07 06:45:05;;;;;;;5.50;2.25;;;3.60;99.90;;;;;;5075306;28;20205;-60
2022/02/07 06:47:32;;;;;;;15.50;2.63;;;3.70;99.90;;;;;;5074755;28;20224;-60
2022/02/07 06:49:59;;;;;;;6.28;3.38;;;3.70;99.90;;;;;;5074605;28;20673;-61
2022/02/07 06:52:27;;;;;;;8.15;2.75;;;3.80;99.90;;;;;;5075687;28;20221;-60
2022/02/07 06:54:54;;;;;;;12.27;2.88;;;3.80;99.90;;;;;;5077164;28;20208;-59
2022/02/07 06:57:23;;;;;;;9.38;2.33;;;3.80;99.90;;;;;;5075787;28;20205;-59
2022/02/07 06:59:50;;;;;;;14.20;3.15;;;3.70;99.90;;;;;;5074273;28;20677;-60
2022/02/07 07:02:19;;;;;;;12.82;3.30;;;3.70;99.90;;;;;;5074555;28;20221;-59
2022/02/07 07:04:48;;;;;;;8.40;1.70;;;3.70;99.90;;;;;;5074432;28;20300;-59
2022/02/07 07:07:16;;;;;;;6.25;2.78;;;3.70;99.90;;;;;;5074006;28;20308;-58
2022/02/07 07:09:45;;;;;;;8.95;2.45;;;3.80;99.90;;;;;;5074189;28;20596;-60
2022/02/07 07:12:13;;;;;;;9.88;2.63;;;3.80;99.90;;;;;;5074174;28;20223;-59
2022/02/07 07:14:44;;;;;;;9.82;1.92;;;3.90;99.90;;;;;;5074340;28;20205;-59
2022/02/07 07:17:12;;;;;;;12.02;2.22;;;3.90;99.90;;;;;;5074117;28;20193;-60
2022/02/07 07:19:39;;;;;;;10.00;2.35;;;3.90;99.90;;;;;;5074152;28;20244;-60
2022/02/07 07:22:07;;;;;;;7.15;2.38;;;3.90;99.90;;;;;;5073796;28;20205;-60
2022/02/07 07:24:35;;;;;;;7.38;1.70;;;4.00;99.90;;;;;;5074928;28;20185;-59
2022/02/07 07:27:02;;;;;;;12.05;2.53;;;4.00;99.90;;;;;;5075294;28;20201;-59
2022/02/07 07:29:34;;;;;;;5.38;2.03;;;4.00;99.90;;;;;;5077836;28;20240;-59
2022/02/07 07:32:05;;;;;;;8.55;2.20;;;4.10;99.90;;;;;;5084696;28;20185;-60
2022/02/07 07:34:32;;;;;;;7.88;2.53;;;4.00;99.90;;;;;;5086586;28;20212;-60
2022/02/07 07:36:59;;;;;;;9.63;3.05;;;3.90;99.90;;;;;;5089697;28;20204;-59
2022/02/07 07:39:27;;;;;;;11.55;2.72;;;3.80;99.90;;;;;;5074787;28;20193;-59
2022/02/07 07:41:55;;;;;;;10.38;2.95;;;3.70;99.90;;;;;;5073446;28;20201;-61
2022/02/07 07:44:27;;;;;;;11.27;2.92;;;3.70;99.90;;;;;;5073766;28;20232;-59
2022/02/07 07:46:57;;;;;;;8.65;2.22;;;3.60;99.90;;;;;;5073977;28;20648;-59
2022/02/07 07:49:39;;;;;;;8.32;2.67;;;3.60;99.90;;;;;;5074498;28;20231;-60
2022/02/07 07:52:11;;;;;;;12.48;4.05;;;3.60;99.90;;;;;;5075664;28;20193;-58
2022/02/07 07:54:57;;;;;;;9.32;4.55;;;3.60;99.90;;;;;;5075072;28;20239;-59
2022/02/07 08:02:55;;;;;;;11.25;2.97;;;3.70;99.90;;;;;;5085905;28;20251;-58
2022/02/07 08:05:39;;;;;;;9.65;3.10;;;3.80;99.90;;;;;;5082719;28;20227;-58
2022/02/07 08:08:18;;;;;;;14.05;3.65;;;3.90;99.90;;;;;;5073616;28;20284;-60
2022/02/07 08:10:51;;;;;;;3.90;1.90;;;3.90;99.90;;;;;;5073580;28;20180;-59
2022/02/07 08:13:19;;;;;;;5.55;2.17;;;3.90;99.90;;;;;;5073552;28;20228;-60
2022/02/07 08:15:46;;;;;;;6.65;2.15;;;3.90;99.90;;;;;;5073302;28;20200;-59
2022/02/07 08:18:13;;;;;;;8.52;2.10;;;4.00;99.90;;;;;;5073519;28;20262;-60
2022/02/07 08:20:42;;;;;;;11.57;2.78;;;4.00;99.90;;;;;;5073790;28;20205;-59
2022/02/07 08:23:10;;;;;;;6.28;2.33;;;4.00;99.90;;;;;;5072923;28;20228;-59
2022/02/07 08:25:38;;;;;;;11.02;2.00;;;4.00;99.90;;;;;;5073728;28;20284;-59
2022/02/07 08:28:06;;;;;;;10.02;2.95;;;4.10;99.90;;;;;;5073841;28;20211;-60
2022/02/07 08:30:33;;;;;;;13.15;2.88;;;4.10;99.90;;;;;;5077086;28;20204;-59
2022/02/07 08:33:01;;;;;;;11.45;2.47;;;4.20;99.90;;;;;;5074346;28;20225;-59
2022/02/07 08:35:28;;;;;;;11.27;2.45;;;4.10;99.90;;;;;;5073215;28;20571;-59
2022/02/07 08:37:58;;;;;;;6.90;1.98;;;4.20;99.90;;;;;;5072698;28;20213;-58
2022/02/07 08:40:26;;;;;;;8.30;2.20;;;4.30;99.90;;;;;;5072398;28;20197;-60
2022/02/07 08:42:54;;;;;;;11.25;3.20;;;4.40;99.90;;;;;;5072526;28;20265;-59
2022/02/07 08:45:21;;;;;;;11.45;3.33;;;4.40;99.90;;;;;;5072502;28;20201;-60
2022/02/07 08:47:49;;;;;;;13.10;3.25;;;4.50;99.90;;;;;;5073470;28;20209;-59
2022/02/07 08:50:16;;;;;;;15.45;3.67;;;4.50;99.90;;;;;;5073143;28;20225;-60
2022/02/07 08:52:47;;;;;;;10.30;2.92;;;4.50;99.90;;;;;;5072892;28;20228;-60
2022/02/07 08:55:23;;;;;;;8.65;3.35;;;4.50;99.90;;;;;;5075657;28;20279;-60
2022/02/07 08:57:56;;;;;;;11.85;3.20;;;4.50;99.90;;;;;;5076604;28;20216;-60
2022/02/07 09:00:24;;;;;;;11.95;2.65;;;4.50;99.90;;;;;;5084877;28;20182;-57
2022/02/07 09:05:44;;;;;;;4.72;1.77;;;4.30;99.90;;;;;;5088619;28;20609;-59
2022/02/07 09:08:24;;;;;;;8.98;2.90;;;3.90;99.90;;;;;;5080677;28;20461;-59
2022/02/07 09:10:54;;;;;;;9.43;2.10;;;3.60;99.90;;;;;;5076047;28;20234;-60
2022/02/07 09:13:28;;;;;;;7.80;2.55;;;3.40;99.90;;;;;;5077128;28;20571;-59
2022/02/07 09:16:03;;;;;;;18.85;4.25;;;3.40;99.90;;;;;;5076292;28;20196;-60
2022/02/07 09:18:31;;;;;;;12.23;4.03;;;3.40;99.90;;;;;;5085382;28;20196;-59
2022/02/07 09:21:00;;;;;;;13.82;2.85;;;3.40;99.90;;;;;;5090600;28;20197;-60
2022/02/07 09:23:28;;;;;;;9.10;2.88;;;3.40;99.90;;;;;;5090121;28;20322;-63
2022/02/07 09:25:58;;;;;;;13.98;3.40;;;3.50;99.90;;;;;;5088238;28;20208;-59
2022/02/07 09:28:25;;;;;;;8.68;2.25;;;3.50;99.90;;;;;;5077050;28;20208;-59
2022/02/07 09:30:53;;;;;;;15.55;2.67;;;3.50;99.90;;;;;;5076700;28;20700;-58
2022/02/07 09:33:21;;;;;;;9.65;2.90;;;3.50;99.90;;;;;;5076244;28;20707;-59
2022/02/07 09:35:49;;;;;;;3.45;1.73;;;3.60;99.90;;;;;;5076196;28;20204;-59
2022/02/07 09:38:17;;;;;;;9.68;2.55;;;3.60;99.90;;;;;;5075815;28;20669;-57
2022/02/07 09:40:49;;;;;;;7.82;2.40;;;3.70;99.90;;;;;;5076433;28;20292;-59
2022/02/07 09:43:18;;;;;;;12.88;2.60;;;3.70;99.90;;;;;;5076385;28;20225;-59
2022/02/07 09:45:49;;;;;;;8.85;3.75;;;3.80;99.90;;;;;;5075323;28;20239;-58
2022/02/07 09:48:17;;;;;;;9.95;3.70;;;3.90;99.90;;;;;;5075580;28;20239;-58
2022/02/07 09:50:44;;;;;;;10.48;2.38;;;3.90;99.90;;;;;;5076007;28;20700;-58
2022/02/07 09:53:12;;;;;;;15.02;3.20;;;4.10;99.90;;;;;;5077087;28;20619;-59
2022/02/07 09:55:39;;;;;;;7.35;2.42;;;4.20;99.90;;;;;;5077077;28;20201;-58
2022/02/07 09:58:07;;;;;;;15.82;3.10;;;4.30;99.90;;;;;;5075662;28;20197;-57
2022/02/07 10:00:36;;;;;;;14.95;3.58;;;4.40;99.90;;;;;;5075993;28;20194;-59
2022/02/07 10:03:11;;;;;;;12.88;3.42;;;4.50;99.90;;;;;;5076744;28;20231;-57
2022/02/07 10:05:47;;;;;;;13.60;3.42;;;4.60;99.90;;;;;;5079398;28;20188;-58
2022/02/07 10:08:21;;;;;;;16.00;3.40;;;4.70;99.90;;;;;;5077384;28;20185;-57
2022/02/07 10:11:05;;;;;;;13.88;3.90;;;4.80;99.90;;;;;;5075560;28;20250;-58
2022/02/07 10:13:43;;;;;;;18.13;3.72;;;5.00;99.90;;;;;;5074887;28;20611;-58
2022/02/07 10:16:32;;;;;;;13.85;3.65;;;5.10;99.90;;;;;;5076800;28;20242;-58
2022/02/07 10:19:16;;;;;;;15.05;3.80;;;5.20;99.90;;;;;;5075701;28;20209;-58
2022/02/07 10:36:10;;;;;;;13.90;3.67;;;5.90;99.90;;;;;;5073955;28;20228;-54
2022/02/07 10:38:51;;;;;;;17.63;3.53;;;6.00;99.90;;;;;;5074184;28;20200;-55
2022/02/07 10:41:40;;;;;;;29.40;3.90;;;6.00;99.90;;;;;;5074359;28;20181;-54
2022/02/07 10:44:31;;;;;;;12.98;3.22;;;6.00;99.90;;;;;;5074677;28;20225;-57
2022/02/07 10:47:04;;;;;;;9.02;2.80;;;6.00;99.90;;;;;;5075301;28;20196;-54
2022/02/07 10:49:33;;;;;;;14.93;4.03;;;6.00;99.90;;;;;;5074675;28;20215;-56
2022/02/07 10:52:01;;;;;;;9.05;3.42;;;6.00;99.90;;;;;;5074786;28;20197;-54
2022/02/07 10:54:29;;;;;;;18.38;2.88;;;6.00;99.90;;;;;;5074285;28;20228;-54
2022/02/07 10:56:56;;;;;;;13.45;4.22;;;5.90;99.90;;;;;;5073981;28;20204;-56
2022/02/07 10:59:24;;;;;;;8.70;2.28;;;5.90;99.90;;;;;;5074017;28;20204;-55
2022/02/07 11:04:57;;;;;;;7.15;2.15;;;5.90;99.90;;;;;;5048858;28;20778;-53
2022/02/07 11:07:28;;;;;;;10.48;2.03;;;5.90;99.90;;;;;;5073536;28;20315;-56
2022/02/07 11:10:06;;;;;;;6.22;2.75;;;5.90;99.80;;;;;;5074120;28;20201;-55
2022/02/07 11:15:26;;;;;;;9.43;2.20;;;6.00;99.10;;;;;;5066513;28;20297;-55
2022/02/07 11:18:04;;;;;;;9.52;2.35;;;6.10;98.90;;;;;;5073154;28;20239;-55
2022/02/07 11:21:00;;;;;;;6.97;3.38;;;6.10;99.10;;;;;;5073955;28;20205;-54
2022/02/07 11:23:35;;;;;;;13.57;2.67;;;6.20;99.10;;;;;;5076686;28;20636;-57
2022/02/07 11:26:26;;;;;;;12.02;3.60;;;6.30;99.30;;;;;;5073241;28;20251;-57
2022/02/07 11:28:54;;;;;;;16.55;3.70;;;6.30;98.80;;;;;;5074195;28;20357;-58
2022/02/07 11:31:29;;;;;;;13.13;3.33;;;6.40;98.20;;;;;;5073348;28;20200;-57
2022/02/07 11:34:01;;;;;;;13.18;3.15;;;6.50;98.40;;;;;;5073389;28;20541;-56
2022/02/07 11:36:34;;;;;;;16.55;3.30;;;6.60;98.50;;;;;;5073297;28;20286;-56
2022/02/07 11:39:12;;;;;;;11.02;3.70;;;6.60;98.00;;;;;;5073047;28;20272;-57
2022/02/07 11:42:06;;;;;;;21.08;5.53;;;6.60;97.80;;;;;;5072610;28;20205;-58
2022/02/07 11:45:21;;;;;;;10.52;2.95;;;6.70;97.60;;;;;;5073233;28;20297;-57
2022/02/07 11:47:49;;;;;;;17.95;6.05;;;6.90;97.60;;;;;;5072953;28;20672;-58
2022/02/07 11:50:22;;;;;;;13.52;3.03;;;7.20;96.90;;;;;;5074812;28;20212;-58
2022/02/07 11:52:54;;;;;;;14.48;3.17;;;7.30;95.90;;;;;;5073403;28;20182;-55
2022/02/07 11:55:24;;;;;;;10.43;3.42;;;7.40;95.30;;;;;;5072871;28;20221;-57
2022/02/07 11:57:57;;;;;;;12.95;3.45;;;7.40;94.60;;;;;;5072955;28;20188;-55
2022/02/07 12:00:30;;;;;;;15.77;4.43;;;7.20;93.80;;;;;;5073528;28;20228;-57
2022/02/07 12:03:02;;;;;;;10.20;2.85;;;7.20;93.60;;;;;;5072710;28;20196;-57
2022/02/07 12:05:31;;;;;;;13.38;3.45;;;7.10;94.10;;;;;;5073473;28;20712;-58
2022/02/07 12:08:02;;;;;;;16.25;4.07;;;7.10;94.00;;;;;;5072852;28;20664;-58
2022/02/07 12:10:38;;;;;;;13.73;2.78;;;7.10;93.60;;;;;;5073155;28;20701;-57
2022/02/07 12:13:28;;;;;;;40.05;4.88;;;7.10;93.80;;;;;;5073530;28;20185;-59
2022/02/07 12:15:56;;;;;;;12.52;4.05;;;6.90;95.10;;;;;;5073022;28;20712;-55
2022/02/07 12:18:25;;;;;;;14.88;3.67;;;6.60;96.30;;;;;;5073024;28;20200;-55
2022/02/07 12:20:54;;;;;;;3.38;1.20;;;6.20;98.50;;;;;;5077905;28;20539;-59
2022/02/07 12:23:31;;;;;;;4.47;1.58;;;5.60;98.50;;;;;;5073944;28;20209;-57
2022/02/07 12:26:08;;;;;;;3.60;1.27;;;4.10;99.90;;;;;;5072910;28;20274;-59
2022/02/07 12:28:42;;;;;;;6.68;1.75;;;3.00;99.90;;;;;;5072629;28;20188;-58
2022/02/07 12:31:18;;;;;;;7.15;2.72;;;2.40;99.90;;;;;;5075929;28;20676;-57
2022/02/07 12:33:47;;;;;;;3.50;1.60;;;2.20;99.90;;;;;;5076365;28;20346;-58
2022/02/07 12:36:14;;;;;;;6.32;1.90;;;2.10;99.90;;;;;;5076872;28;20564;-57
2022/02/07 12:38:45;;;;;;;5.95;2.70;;;2.10;99.90;;;;;;5076581;28;20205;-57
2022/02/07 12:41:16;;;;;;;9.63;2.45;;;2.10;99.90;;;;;;5076570;28;20186;-59
2022/02/07 12:43:48;;;;;;;4.07;2.10;;;2.10;99.90;;;;;;5082402;28;20197;-58
2022/02/07 12:46:17;;;;;;;7.70;2.80;;;2.20;99.90;;;;;;5076096;28;20196;-58
2022/02/07 12:48:50;;;;;;;13.35;2.63;;;2.40;99.90;;;;;;5076313;28;20205;-57
2022/02/07 12:51:20;;;;;;;7.72;2.78;;;2.60;99.90;;;;;;5076805;28;20205;-57
2022/02/07 12:53:52;;;;;;;6.70;2.13;;;2.70;99.90;;;;;;5077424;28;20205;-58
2022/02/07 12:56:19;;;;;;;10.48;2.30;;;2.90;99.90;;;;;;5076146;28;20587;-56
2022/02/07 12:58:47;;;;;;;9.38;2.17;;;3.00;99.90;;;;;;5076577;28;20211;-58
2022/02/07 13:01:25;;;;;;;9.30;2.35;;;3.10;99.90;;;;;;5076147;28;20197;-59
2022/02/07 13:03:55;;;;;;;6.28;2.30;;;3.20;99.90;;;;;;5076087;28;20219;-57
2022/02/07 13:06:31;;;;;;;9.57;3.00;;;3.40;99.90;;;;;;5075677;28;20216;-56
2022/02/07 13:09:03;;;;;;;8.10;2.65;;;3.50;99.90;;;;;;5075679;28;20209;-58
2022/02/07 13:11:32;;;;;;;10.50;3.75;;;3.60;99.90;;;;;;5075714;28;20299;-58
2022/02/07 13:14:00;;;;;;;10.68;3.88;;;3.80;99.90;;;;;;5076176;28;20220;-58
2022/02/07 13:16:33;;;;;;;14.73;2.58;;;4.00;99.90;;;;;;5075858;28;20228;-59
2022/02/07 13:19:13;;;;;;;10.80;2.50;;;4.20;99.90;;;;;;5075763;28;20192;-57
2022/02/07 13:21:42;;;;;;;10.05;3.45;;;4.50;99.90;;;;;;5075947;28;20185;-59
2022/02/07 13:24:13;;;;;;;10.38;2.65;;;4.70;99.90;;;;;;5075378;28;20248;-60
2022/02/07 13:26:48;;;;;;;9.48;3.60;;;4.90;99.90;;;;;;5078005;28;20238;-59
2022/02/07 13:29:24;;;;;;;13.70;3.33;;;5.00;99.90;;;;;;5075700;28;20749;-59
2022/02/07 13:31:59;;;;;;;18.77;2.83;;;5.10;99.90;;;;;;5075580;28;20223;-58
2022/02/07 13:34:27;;;;;;;11.05;3.05;;;5.20;99.90;;;;;;5075559;28;20753;-57
2022/02/07 13:37:05;;;;;;;5.60;2.53;;;5.30;99.90;;;;;;5083335;28;20572;-58
2022/02/07 13:39:53;;;;;;;10.55;3.17;;;5.30;99.90;;;;;;5075506;28;20189;-57
2022/02/07 13:42:26;;;;;;;6.82;2.15;;;5.30;99.90;;;;;;5076918;28;20189;-59
2022/02/07 13:44:57;;;;;;;10.27;2.95;;;5.30;99.90;;;;;;5075469;28;20284;-58
2022/02/07 13:47:26;;;;;;;8.90;2.20;;;5.20;99.90;;;;;;5075689;28;20185;-58
2022/02/07 13:49:56;;;;;;;5.38;2.50;;;5.10;99.90;;;;;;5075703;28;20747;-55
2022/02/07 13:52:23;;;;;;;10.80;3.05;;;5.20;99.90;;;;;;5075209;28;20245;-55
2022/02/07 13:54:53;;;;;;;10.27;2.58;;;5.20;99.90;;;;;;5075200;28;20229;-56
2022/02/07 13:57:20;;;;;;;10.95;3.17;;;5.20;99.90;;;;;;5074972;28;20257;-56
2022/02/07 13:59:47;;;;;;;10.98;3.17;;;5.20;99.90;;;;;;5074944;28;20201;-56
2022/02/07 14:02:27;;;;;;;10.27;2.70;;;5.20;99.90;;;;;;5075209;28;20750;-56
2022/02/07 14:04:55;;;;;;;9.57;2.33;;;5.20;99.90;;;;;;5074941;28;20220;-55
2022/02/07 14:07:22;;;;;;;7.80;2.28;;;5.20;99.90;;;;;;5075624;28;20197;-54
2022/02/07 14:09:51;;;;;;;7.88;2.38;;;5.20;99.90;;;;;;5075889;28;20310;-56
2022/02/07 14:12:18;;;;;;;8.25;2.20;;;5.20;99.90;;;;;;5077143;28;20711;-55
2022/02/07 14:14:45;;;;;;;6.47;2.22;;;5.10;99.90;;;;;;5078034;28;20228;-55
2022/02/07 14:17:14;;;;;;;5.72;2.33;;;5.10;99.90;;;;;;5079392;28;20212;-55
2022/02/07 14:19:46;;;;;;;6.82;2.35;;;5.10;99.90;;;;;;5076251;28;20205;-55
2022/02/07 14:22:13;;;;;;;13.02;2.35;;;5.00;99.90;;;;;;5074691;28;20589;-56
2022/02/07 14:24:41;;;;;;;5.35;1.88;;;5.00;99.90;;;;;;5074929;28;20229;-56
2022/02/07 14:27:10;;;;;;;10.25;2.53;;;5.00;99.90;;;;;;5074920;28;20217;-56
2022/02/07 14:29:37;;;;;;;14.57;3.60;;;5.00;99.90;;;;;;5074943;28;20232;-54
2022/02/07 14:32:05;;;;;;;11.25;3.10;;;5.10;99.90;;;;;;5074902;28;20267;-56
2022/02/07 14:34:32;;;;;;;5.68;2.53;;;5.10;99.90;;;;;;5074636;28;20220;-56
2022/02/07 14:36:59;;;;;;;13.45;2.42;;;5.10;99.90;;;;;;5075362;28;20197;-55
2022/02/07 14:39:26;;;;;;;3.17;1.50;;;5.00;99.90;;;;;;5074294;28;20208;-57
2022/02/07 14:41:53;;;;;;;7.10;3.10;;;5.00;99.90;;;;;;5075343;28;20205;-57
2022/02/07 14:44:30;;;;;;;6.85;1.23;;;5.00;99.90;;;;;;5076227;28;20221;-53
2022/02/07 14:47:06;;;;;;;5.63;1.98;;;4.90;99.90;;;;;;5075754;28;20254;-55